createdAt,value
2018-11-30T00:00:29.936Z,70.2
2018-11-30T00:01:29.947Z,70.29
2018-11-30T00:02:29.960Z,70.29
2018-11-30T00:03:29.971Z,70.95
2018-11-30T00:04:29.985Z,71.17
2018-11-30T00:05:30.004Z,70.01
2018-11-30T00:06:30.008Z,70.98
2018-11-30T00:08:30.037Z,70.76
2018-11-30T00:09:30.048Z,70.48
2018-11-30T00:10:30.059Z,71.27
2018-11-30T00:11:30.070Z,70.04
2018-11-30T00:12:30.080Z,70.42
2018-11-30T00:13:44.754Z,70.32
2018-11-30T00:14:30.105Z,70.04
2018-11-30T00:15:30.116Z,71.14
2018-11-30T00:16:30.130Z,70.04
2018-11-30T00:17:30.142Z,70.32
2018-11-30T00:18:30.155Z,70.2
2018-11-30T00:19:30.168Z,70.57
2018-11-30T00:20:30.180Z,70.42
2018-11-30T00:21:30.190Z,70.48
2018-11-30T00:22:30.202Z,70.98
2018-11-30T00:23:30.215Z,70.67
2018-11-30T00:24:30.225Z,70.86
2018-11-30T00:25:30.244Z,70.57
2018-11-30T00:26:30.252Z,70.95
2018-11-30T00:27:30.266Z,71.42
2018-11-30T00:28:30.279Z,71.33
2018-11-30T00:29:44.948Z,71.33
2018-11-30T00:30:30.299Z,71.04
2018-11-30T00:31:30.312Z,70.95
2018-11-30T00:32:30.324Z,71.14
2018-11-30T00:33:30.336Z,71.42
2018-11-30T00:34:30.352Z,70.95
2018-11-30T00:35:30.363Z,70.95
2018-11-30T00:36:30.374Z,70.76
2018-11-30T00:37:30.385Z,71.23
2018-11-30T00:38:30.399Z,70.48
2018-11-30T00:39:30.410Z,70.67
2018-11-30T00:40:30.421Z,70.7
2018-11-30T00:42:30.491Z,70.86
2018-11-30T00:43:30.460Z,71.23
2018-11-30T00:44:45.134Z,71.23
2018-11-30T00:45:30.485Z,71.14
2018-11-30T00:46:30.497Z,71.52
2018-11-30T00:47:30.511Z,71.36
2018-11-30T00:48:30.521Z,70.76
2018-11-30T00:49:30.533Z,71.04
2018-11-30T00:50:30.731Z,70.76
2018-11-30T00:51:30.557Z,71.27
2018-11-30T00:52:30.572Z,71.08
2018-11-30T00:53:30.583Z,71.14
2018-11-30T00:54:30.594Z,71.27
2018-11-30T00:56:30.620Z,71.04
2018-11-30T00:58:30.647Z,71.14
2018-11-30T00:59:30.657Z,71.61
2018-11-30T01:00:30.673Z,71.23
2018-11-30T01:01:30.680Z,71.23
2018-11-30T01:02:30.692Z,71.42
2018-11-30T01:03:30.708Z,71.46
2018-11-30T01:04:30.717Z,70.79
2018-11-30T01:05:30.728Z,70.79
2018-11-30T01:06:30.744Z,71.08
2018-11-30T01:07:30.754Z,71.23
2018-11-30T01:08:30.773Z,70.98
2018-11-30T01:10:30.797Z,71.04
2018-11-30T01:11:30.802Z,71.14
2018-11-30T01:13:30.826Z,71.42
2018-11-30T01:14:30.842Z,71.52
2018-11-30T01:15:30.856Z,71.65
2018-11-30T01:16:45.525Z,71.27
2018-11-30T01:17:30.878Z,71.08
2018-11-30T01:18:30.891Z,70.89
2018-11-30T01:19:30.902Z,71.36
2018-11-30T01:20:30.911Z,70.7
2018-11-30T01:21:30.925Z,70.61
2018-11-30T01:22:30.940Z,71.08
2018-11-30T01:23:30.950Z,70.98
2018-11-30T01:24:30.961Z,70.7
2018-11-30T01:25:30.975Z,71.27
2018-11-30T01:26:30.984Z,70.89
2018-11-30T01:27:30.999Z,70.98
2018-11-30T01:28:31.060Z,70.98
2018-11-30T01:29:31.026Z,71.17
2018-11-30T01:30:31.039Z,70.98
2018-11-30T01:31:31.048Z,70.61
2018-11-30T01:32:45.724Z,70.51
2018-11-30T01:33:31.071Z,70.7
2018-11-30T01:34:31.085Z,70.98
2018-11-30T01:35:31.100Z,70.51
2018-11-30T01:36:31.109Z,70.98
2018-11-30T01:37:31.124Z,70.98
2018-11-30T01:39:31.147Z,71.36
2018-11-30T01:40:31.158Z,70.7
2018-11-30T01:41:31.171Z,71.08
2018-11-30T01:45:31.219Z,70.7
2018-11-30T01:46:31.232Z,70.7
2018-11-30T01:47:31.245Z,70.7
2018-11-30T01:48:45.918Z,70.98
2018-11-30T01:49:31.269Z,71.36
2018-11-30T01:50:31.283Z,70.51
2018-11-30T01:51:31.298Z,70.98
2018-11-30T01:52:31.317Z,70.98
2018-11-30T01:53:31.329Z,71.08
2018-11-30T01:54:31.333Z,70.79
2018-11-30T01:55:31.343Z,71.17
2018-11-30T01:56:31.365Z,70.89
2018-11-30T01:57:31.371Z,71.27
2018-11-30T01:58:31.381Z,70.89
2018-11-30T01:59:31.393Z,70.89
2018-11-30T02:00:31.406Z,71.08
2018-11-30T02:01:31.417Z,71.36
2018-11-30T02:02:31.433Z,71.08
2018-11-30T02:03:31.440Z,70.98
2018-11-30T02:04:46.116Z,70.89
2018-11-30T02:05:31.468Z,71.27
2018-11-30T02:06:31.483Z,71.17
2018-11-30T02:07:31.491Z,71.17
2018-11-30T02:08:31.503Z,71.27
2018-11-30T02:09:31.517Z,71.08
2018-11-30T02:10:31.528Z,70.98
2018-11-30T02:11:31.541Z,71.17
2018-11-30T02:12:31.562Z,71.08
2018-11-30T02:13:31.564Z,71.08
2018-11-30T02:14:31.577Z,71.17
2018-11-30T02:15:31.591Z,71.08
2018-11-30T02:17:31.615Z,70.89
2018-11-30T02:18:31.627Z,71.17
2018-11-30T02:19:46.302Z,71.17
2018-11-30T02:20:31.653Z,70.98
2018-11-30T02:21:31.667Z,71.36
2018-11-30T02:22:31.676Z,71.17
2018-11-30T02:23:31.698Z,70.89
2018-11-30T02:24:31.702Z,71.17
2018-11-30T02:25:31.472Z,71.36
2018-11-30T02:26:31.729Z,71.65
2018-11-30T02:27:31.739Z,71.46
2018-11-30T02:28:31.751Z,71.17
2018-11-30T02:29:31.763Z,71.55
2018-11-30T02:30:31.783Z,71.08
2018-11-30T02:31:31.788Z,71.08
2018-11-30T02:32:31.803Z,71.08
2018-11-30T02:33:31.818Z,70.79
2018-11-30T02:34:31.827Z,71.55
2018-11-30T02:35:31.852Z,71.36
2018-11-30T02:36:31.854Z,71.46
2018-11-30T02:37:31.865Z,71.27
2018-11-30T02:38:31.892Z,71.55
2018-11-30T02:39:31.883Z,71.65
2018-11-30T02:40:31.908Z,71.46
2018-11-30T02:41:31.912Z,72.12
2018-11-30T02:42:31.931Z,71.74
2018-11-30T02:43:31.944Z,72.22
2018-11-30T02:44:31.949Z,71.55
2018-11-30T02:46:31.994Z,71.08
2018-11-30T02:47:31.991Z,71.17
2018-11-30T02:48:31.999Z,71.55
2018-11-30T02:49:32.014Z,72.12
2018-11-30T02:50:32.022Z,71.55
2018-11-30T02:51:46.696Z,72.03
2018-11-30T02:52:32.048Z,71.93
2018-11-30T02:53:32.061Z,72.03
2018-11-30T02:54:32.079Z,71.74
2018-11-30T02:55:32.087Z,71.36
2018-11-30T02:56:32.100Z,71.46
2018-11-30T02:57:32.113Z,71.36
2018-11-30T02:58:32.124Z,71.65
2018-11-30T02:59:32.141Z,71.84
2018-11-30T03:00:32.152Z,72.22
2018-11-30T03:01:32.162Z,71.93
2018-11-30T03:02:32.172Z,72.41
2018-11-30T03:03:32.184Z,71.93
2018-11-30T03:04:32.208Z,71.93
2018-11-30T03:05:32.210Z,71.55
2018-11-30T03:06:32.221Z,72.41
2018-11-30T03:07:46.904Z,72.5
2018-11-30T03:08:32.003Z,71.55
2018-11-30T03:09:32.258Z,72.03
2018-11-30T03:10:32.274Z,71.74
2018-11-30T03:11:32.284Z,72.31
2018-11-30T03:12:32.296Z,72.12
2018-11-30T03:13:32.310Z,71.84
2018-11-30T03:14:32.324Z,71.74
2018-11-30T03:15:32.333Z,71.55
2018-11-30T03:16:32.348Z,72.22
2018-11-30T03:17:32.359Z,71.74
2018-11-30T03:18:32.373Z,72.03
2018-11-30T03:19:32.405Z,71.93
2018-11-30T03:20:32.399Z,72.31
2018-11-30T03:21:32.410Z,72.41
2018-11-30T03:22:32.421Z,72.22
2018-11-30T03:23:47.093Z,72.69
2018-11-30T03:24:32.446Z,72.31
2018-11-30T03:25:32.462Z,72.31
2018-11-30T03:27:32.482Z,72.6
2018-11-30T03:28:32.499Z,72.69
2018-11-30T03:29:32.510Z,72.6
2018-11-30T03:30:32.547Z,72.41
2018-11-30T03:32:32.554Z,72.22
2018-11-30T03:33:32.574Z,72.5
2018-11-30T03:34:32.580Z,72.6
2018-11-30T03:35:32.585Z,72.22
2018-11-30T03:36:32.594Z,72.41
2018-11-30T03:37:32.624Z,72.31
2018-11-30T03:38:32.621Z,72.31
2018-11-30T03:39:47.295Z,72.41
2018-11-30T03:40:32.648Z,72.6
2018-11-30T03:41:32.660Z,72.6
2018-11-30T03:42:32.668Z,72.88
2018-11-30T03:43:32.688Z,72.6
2018-11-30T03:44:32.696Z,72.78
2018-11-30T03:45:32.717Z,73.07
2018-11-30T03:46:32.722Z,72.5
2018-11-30T03:48:32.745Z,72.88
2018-11-30T03:50:32.779Z,72.5
2018-11-30T03:52:32.799Z,73.07
2018-11-30T03:53:32.807Z,72.6
2018-11-30T03:54:47.481Z,73.16
2018-11-30T03:55:32.834Z,73.26
2018-11-30T03:56:32.877Z,73.07
2018-11-30T03:57:32.856Z,73.64
2018-11-30T03:58:32.871Z,73.83
2018-11-30T03:59:32.888Z,72.78
2018-11-30T04:00:32.896Z,73.26
2018-11-30T04:01:32.910Z,73.16
2018-11-30T04:02:32.952Z,73.26
2018-11-30T04:03:32.930Z,73.54
2018-11-30T04:04:32.943Z,73.73
2018-11-30T04:05:32.976Z,73.54
2018-11-30T04:06:32.985Z,73.64
2018-11-30T04:07:32.981Z,73.26
2018-11-30T04:08:32.995Z,73.64
2018-11-30T04:09:33.009Z,73.35
2018-11-30T04:10:33.020Z,73.64
2018-11-30T04:11:33.031Z,73.64
2018-11-30T04:12:33.067Z,73.64
2018-11-30T04:13:33.053Z,74.21
2018-11-30T04:14:33.070Z,73.73
2018-11-30T04:15:33.089Z,74.11
2018-11-30T04:16:33.094Z,73.92
2018-11-30T04:17:33.107Z,74.02
2018-11-30T04:18:33.118Z,74.3
2018-11-30T04:19:33.132Z,74.4
2018-11-30T04:20:33.171Z,74.68
2018-11-30T04:21:32.914Z,73.54
2018-11-30T04:23:33.192Z,73.92
2018-11-30T04:24:33.195Z,74.4
2018-11-30T04:25:33.208Z,74.3
2018-11-30T04:26:47.879Z,74.21
2018-11-30T04:27:33.238Z,74.3
2018-11-30T04:28:33.243Z,74.3
2018-11-30T04:29:33.255Z,74.11
2018-11-30T04:30:33.267Z,74.21
2018-11-30T04:31:38.832Z,73.92
2018-11-30T04:32:33.298Z,74.02
2018-11-30T04:33:33.316Z,74.11
2018-11-30T04:34:33.322Z,74.11
2018-11-30T04:35:33.335Z,74.3
2018-11-30T04:36:33.343Z,74.3
2018-11-30T04:37:39.584Z,74.4
2018-11-30T04:38:33.369Z,74.49
2018-11-30T04:39:33.383Z,74.21
2018-11-30T04:40:33.394Z,74.4
2018-11-30T04:41:33.408Z,74.11
2018-11-30T04:42:48.080Z,74.4
2018-11-30T04:43:33.188Z,74.4
2018-11-30T04:44:33.447Z,74.49
2018-11-30T04:45:33.464Z,74.4
2018-11-30T04:46:33.473Z,74.68
2018-11-30T04:47:33.483Z,74.58
2018-11-30T04:48:33.495Z,74.68
2018-11-30T04:50:33.522Z,74.87
2018-11-30T04:51:33.529Z,75.05
2018-11-30T04:54:33.570Z,75.05
2018-11-30T04:57:33.606Z,74.77
2018-11-30T04:58:48.279Z,75.15
2018-11-30T04:59:33.630Z,74.96
2018-11-30T05:00:33.652Z,74.96
2018-11-30T05:01:33.659Z,74.77
2018-11-30T05:02:33.669Z,75.34
2018-11-30T05:03:33.681Z,75.05
2018-11-30T05:04:33.694Z,75.15
2018-11-30T05:05:33.707Z,75.05
2018-11-30T05:06:33.718Z,74.96
2018-11-30T05:07:33.734Z,74.58
2018-11-30T05:08:33.756Z,75.24
2018-11-30T05:09:33.763Z,75.43
2018-11-30T05:10:33.779Z,75.34
2018-11-30T05:11:33.781Z,75.05
2018-11-30T05:12:33.800Z,75.43
2018-11-30T05:13:33.806Z,75.43
2018-11-30T05:14:48.480Z,74.77
2018-11-30T05:15:33.834Z,75.15
2018-11-30T05:16:33.842Z,75.05
2018-11-30T05:17:33.855Z,75.05
2018-11-30T05:18:33.872Z,75.72
2018-11-30T05:19:33.887Z,75.53
2018-11-30T05:20:33.898Z,75.72
2018-11-30T05:21:33.905Z,75.72
2018-11-30T05:22:33.918Z,75.34
2018-11-30T05:23:33.930Z,75.62
2018-11-30T05:24:33.942Z,75.62
2018-11-30T05:26:33.970Z,75.43
2018-11-30T05:27:33.981Z,75.53
2018-11-30T05:28:33.993Z,75.72
2018-11-30T05:29:48.669Z,75.62
2018-11-30T05:30:34.018Z,75.91
2018-11-30T05:31:34.034Z,76.1
2018-11-30T05:32:34.044Z,76.1
2018-11-30T05:33:34.066Z,75.81
2018-11-30T05:34:34.071Z,75.53
2018-11-30T05:35:34.085Z,75.72
2018-11-30T05:36:34.097Z,75.62
2018-11-30T05:37:34.107Z,75.62
2018-11-30T05:38:34.121Z,75.62
2018-11-30T05:39:34.135Z,75.53
2018-11-30T05:41:34.159Z,75.72
2018-11-30T05:42:34.169Z,75.72
2018-11-30T05:43:34.186Z,76.19
2018-11-30T05:44:34.193Z,76.1
2018-11-30T05:45:34.207Z,75.91
2018-11-30T05:46:34.220Z,75.81
2018-11-30T05:47:34.236Z,75.91
2018-11-30T05:48:34.243Z,75.62
2018-11-30T05:49:34.258Z,76.19
2018-11-30T05:50:34.267Z,76.48
2018-11-30T05:51:34.283Z,75.72
2018-11-30T05:52:34.294Z,75.91
2018-11-30T05:53:34.306Z,76.19
2018-11-30T05:55:34.336Z,76.1
2018-11-30T05:56:34.343Z,76.76
2018-11-30T05:57:34.355Z,76.57
2018-11-30T05:58:34.368Z,76.38
2018-11-30T05:59:34.383Z,76.38
2018-11-30T06:00:34.396Z,76.57
2018-11-30T06:01:49.065Z,76.38
2018-11-30T06:02:34.418Z,76.38
2018-11-30T06:03:34.432Z,76.48
2018-11-30T06:04:34.441Z,76.48
2018-11-30T06:05:34.457Z,76.76
2018-11-30T06:06:34.468Z,76.29
2018-11-30T06:07:34.480Z,76.29
2018-11-30T06:08:34.494Z,76.67
2018-11-30T06:09:34.505Z,76.19
2018-11-30T06:10:34.517Z,76.48
2018-11-30T06:12:34.541Z,75.72
2018-11-30T06:13:34.555Z,76.19
2018-11-30T06:14:34.571Z,76.19
2018-11-30T06:15:34.577Z,76.1
2018-11-30T06:16:34.598Z,76.29
2018-11-30T06:17:49.268Z,76
2018-11-30T06:18:34.616Z,76.1
2018-11-30T06:19:34.628Z,76.67
2018-11-30T06:20:34.639Z,76.19
2018-11-30T06:21:34.656Z,76.57
2018-11-30T06:22:34.662Z,76.76
2018-11-30T06:23:34.678Z,76.57
2018-11-30T06:24:34.692Z,76.57
2018-11-30T06:25:34.706Z,76.48
2018-11-30T06:26:34.718Z,76.19
2018-11-30T06:27:34.727Z,75.53
2018-11-30T06:29:35.873Z,76.1
2018-11-30T06:30:34.765Z,75.91
2018-11-30T06:31:34.852Z,76.19
2018-11-30T06:32:34.792Z,76.48
2018-11-30T06:33:49.462Z,76.29
2018-11-30T06:34:34.814Z,75.91
2018-11-30T06:35:34.825Z,75.81
2018-11-30T06:36:34.594Z,75.72
2018-11-30T06:37:34.858Z,75.81
2018-11-30T06:38:34.865Z,75.72
2018-11-30T06:39:34.879Z,75.81
2018-11-30T06:40:34.990Z,76.1
2018-11-30T06:42:34.913Z,75.81
2018-11-30T06:43:34.927Z,75.91
2018-11-30T06:44:34.938Z,75.72
2018-11-30T06:45:34.962Z,75.91
2018-11-30T06:46:34.965Z,75.62
2018-11-30T06:47:34.977Z,75.81
2018-11-30T06:48:34.992Z,75.91
2018-11-30T06:49:49.662Z,75.81
2018-11-30T06:50:35.019Z,75.91
2018-11-30T06:51:35.030Z,75.62
2018-11-30T06:52:35.039Z,75.91
2018-11-30T06:53:35.055Z,75.91
2018-11-30T06:54:35.066Z,76.19
2018-11-30T06:55:35.178Z,75.81
2018-11-30T06:56:35.089Z,75.91
2018-11-30T06:58:35.165Z,75.81
2018-11-30T07:02:35.165Z,75.62
2018-11-30T07:03:35.177Z,75.91
2018-11-30T07:04:49.851Z,75.72
2018-11-30T07:05:35.206Z,75.81
2018-11-30T07:06:35.217Z,75.81
2018-11-30T07:07:35.226Z,75.81
2018-11-30T07:08:35.239Z,75.62
2018-11-30T07:09:35.263Z,75.62
2018-11-30T07:10:35.263Z,75.43
2018-11-30T07:11:35.280Z,75.62
2018-11-30T07:12:35.293Z,75.53
2018-11-30T07:14:35.314Z,75.91
2018-11-30T07:15:35.328Z,75.62
2018-11-30T07:17:35.363Z,75.62
2018-11-30T07:18:35.377Z,75.62
2018-11-30T07:19:35.402Z,75.62
2018-11-30T07:20:35.437Z,75.62
2018-11-30T07:21:35.429Z,75.81
2018-11-30T07:23:35.464Z,76.1
2018-11-30T07:24:35.460Z,75.62
2018-11-30T07:25:35.472Z,75.53
2018-11-30T07:26:35.232Z,75.62
2018-11-30T07:27:35.489Z,75.72
2018-11-30T07:28:35.507Z,76
2018-11-30T07:29:35.515Z,75.72
2018-11-30T07:30:35.526Z,75.72
2018-11-30T07:31:35.838Z,75.72
2018-11-30T07:32:35.570Z,76.1
2018-11-30T07:33:35.574Z,75.91
2018-11-30T07:34:35.580Z,75.91
2018-11-30T07:35:35.591Z,75.91
2018-11-30T07:36:50.255Z,75.81
2018-11-30T07:37:35.874Z,75.81
2018-11-30T07:38:35.630Z,75.81
2018-11-30T07:39:35.638Z,75.72
2018-11-30T07:40:35.658Z,75.81
2018-11-30T07:41:35.676Z,75.81
2018-11-30T07:42:35.685Z,75.62
2018-11-30T07:43:35.700Z,75.81
2018-11-30T07:44:35.706Z,76.04
2018-11-30T07:45:35.717Z,76
2018-11-30T07:46:35.729Z,75.66
2018-11-30T07:47:35.737Z,76.14
2018-11-30T07:48:35.751Z,76.23
2018-11-30T07:49:35.764Z,75.76
2018-11-30T07:50:35.776Z,75.47
2018-11-30T07:51:36.099Z,75.85
2018-11-30T07:52:50.457Z,74.87
2018-11-30T07:53:35.808Z,75.43
2018-11-30T07:54:35.827Z,75.62
2018-11-30T07:55:35.839Z,75.91
2018-11-30T07:56:35.886Z,75.66
2018-11-30T07:57:35.861Z,75.53
2018-11-30T07:59:35.896Z,75.43
2018-11-30T08:00:35.911Z,75.91
2018-11-30T08:01:36.241Z,75.66
2018-11-30T08:02:35.929Z,75.47
2018-11-30T08:03:35.944Z,75.57
2018-11-30T08:04:35.954Z,75.57
2018-11-30T08:05:35.964Z,74.9
2018-11-30T08:06:35.983Z,75.76
2018-11-30T08:07:35.995Z,75.57
2018-11-30T08:08:50.660Z,75.76
2018-11-30T08:09:36.015Z,75.76
2018-11-30T08:10:36.027Z,75.95
2018-11-30T08:11:36.269Z,75.66
2018-11-30T08:12:36.050Z,75.66
2018-11-30T08:13:36.069Z,75.57
2018-11-30T08:14:36.074Z,75.47
2018-11-30T08:15:36.105Z,75.66
2018-11-30T08:16:36.105Z,75.76
2018-11-30T08:17:36.119Z,75.95
2018-11-30T08:18:36.135Z,75.47
2018-11-30T08:19:36.141Z,75.47
2018-11-30T08:20:36.159Z,75.28
2018-11-30T08:21:36.167Z,75.47
2018-11-30T08:22:36.177Z,75.47
2018-11-30T08:23:36.200Z,75.57
2018-11-30T08:24:50.864Z,75.66
2018-11-30T08:25:36.218Z,75.38
2018-11-30T08:26:36.230Z,75.47
2018-11-30T08:27:36.240Z,75.19
2018-11-30T08:28:36.255Z,75.19
2018-11-30T08:29:36.367Z,75.19
2018-11-30T08:30:36.279Z,75.09
2018-11-30T08:31:36.299Z,75.47
2018-11-30T08:32:36.311Z,75.57
2018-11-30T08:33:36.320Z,75.47
2018-11-30T08:34:36.332Z,75.66
2018-11-30T08:35:36.344Z,75.57
2018-11-30T08:37:36.371Z,75.09
2018-11-30T08:38:36.383Z,75.47
2018-11-30T08:39:51.058Z,75.28
2018-11-30T08:40:36.409Z,75.28
2018-11-30T08:41:36.423Z,75.09
2018-11-30T08:42:36.440Z,75
2018-11-30T08:43:36.448Z,75.19
2018-11-30T08:44:36.462Z,75.09
2018-11-30T08:45:36.482Z,75.28
2018-11-30T08:46:36.489Z,75.09
2018-11-30T08:47:36.503Z,75.76
2018-11-30T08:48:36.516Z,75.57
2018-11-30T08:49:36.529Z,75.66
2018-11-30T08:50:36.542Z,75.19
2018-11-30T08:51:36.554Z,75.09
2018-11-30T08:52:36.567Z,74.52
2018-11-30T08:53:36.582Z,74.43
2018-11-30T08:54:36.600Z,74.9
2018-11-30T08:55:36.606Z,75.47
2018-11-30T08:56:36.623Z,75.47
2018-11-30T08:57:36.633Z,75.57
2018-11-30T08:58:36.648Z,75.09
2018-11-30T08:59:36.664Z,75.09
2018-11-30T09:01:36.687Z,75
2018-11-30T09:02:36.707Z,75.19
2018-11-30T09:03:36.718Z,75.57
2018-11-30T09:04:36.724Z,75.57
2018-11-30T09:06:36.753Z,75.09
2018-11-30T09:07:36.766Z,74.9
2018-11-30T09:08:36.775Z,74.81
2018-11-30T09:09:36.827Z,75.38
2018-11-30T09:10:36.835Z,75.66
2018-11-30T09:11:51.484Z,75.57
2018-11-30T09:12:36.828Z,75.76
2018-11-30T09:13:36.883Z,75.09
2018-11-30T09:14:36.854Z,75.19
2018-11-30T09:15:36.867Z,75.09
2018-11-30T09:16:36.882Z,75.85
2018-11-30T09:17:36.930Z,75.57
2018-11-30T09:18:36.928Z,75.76
2018-11-30T09:19:36.924Z,75.57
2018-11-30T09:20:36.932Z,76.14
2018-11-30T09:21:36.949Z,75.66
2018-11-30T09:22:36.959Z,75.57
2018-11-30T09:23:36.973Z,75.47
2018-11-30T09:24:36.984Z,75.09
2018-11-30T09:25:36.997Z,75.47
2018-11-30T09:26:37.011Z,75.47
2018-11-30T09:27:51.687Z,75.57
2018-11-30T09:28:37.039Z,75.66
2018-11-30T09:29:37.051Z,75.85
2018-11-30T09:30:37.065Z,75.89
2018-11-30T09:31:37.077Z,75.7
2018-11-30T09:32:37.090Z,75.13
2018-11-30T09:33:37.103Z,75.09
2018-11-30T09:34:37.116Z,75.09
2018-11-30T09:35:37.132Z,75.23
2018-11-30T09:36:37.146Z,75.32
2018-11-30T09:37:37.158Z,75.6
2018-11-30T09:38:37.167Z,75.51
2018-11-30T09:39:37.182Z,75.13
2018-11-30T09:40:37.198Z,75.23
2018-11-30T09:41:37.210Z,75.32
2018-11-30T09:42:37.235Z,75.79
2018-11-30T09:43:51.895Z,76.17
2018-11-30T09:44:37.251Z,76.65
2018-11-30T09:45:37.268Z,76.65
2018-11-30T09:46:37.278Z,77.22
2018-11-30T09:47:37.291Z,77.69
2018-11-30T09:48:37.310Z,77.12
2018-11-30T09:49:37.420Z,77.4
2018-11-30T09:50:37.080Z,77.31
2018-11-30T09:51:37.343Z,77.12
2018-11-30T09:52:37.364Z,77.78
2018-11-30T09:53:37.371Z,77.31
2018-11-30T09:55:37.400Z,77.12
2018-11-30T09:56:37.408Z,77.12
2018-11-30T09:57:37.421Z,76.84
2018-11-30T09:58:37.435Z,76.84
2018-11-30T09:59:52.107Z,76.65
2018-11-30T10:00:37.457Z,76.36
2018-11-30T10:01:37.475Z,76.93
2018-11-30T10:02:37.485Z,76.65
2018-11-30T10:03:37.500Z,76.74
2018-11-30T10:04:37.514Z,76.36
2018-11-30T10:05:37.629Z,76.17
2018-11-30T10:06:37.539Z,75.7
2018-11-30T10:07:37.552Z,75.6
2018-11-30T10:08:37.566Z,75.6
2018-11-30T10:10:37.595Z,75.98
2018-11-30T10:11:37.605Z,75.6
2018-11-30T10:12:37.626Z,75.51
2018-11-30T10:13:37.638Z,75.89
2018-11-30T10:14:52.307Z,75.89
2018-11-30T10:15:37.661Z,75.7
2018-11-30T10:16:37.677Z,75.98
2018-11-30T10:17:37.686Z,75.89
2018-11-30T10:18:37.750Z,75.6
2018-11-30T10:19:37.714Z,74.95
2018-11-30T10:20:37.726Z,74.66
2018-11-30T10:21:37.740Z,74.85
2018-11-30T10:22:37.754Z,74.66
2018-11-30T10:23:37.867Z,75.13
2018-11-30T10:25:37.797Z,75.51
2018-11-30T10:26:37.808Z,75.79
2018-11-30T10:27:37.821Z,76.17
2018-11-30T10:28:37.834Z,75.7
2018-11-30T10:29:37.852Z,76.93
2018-11-30T10:30:37.864Z,76.93
2018-11-30T10:31:37.875Z,77.5
2018-11-30T10:32:37.889Z,78.26
2018-11-30T10:33:37.903Z,77.69
2018-11-30T10:34:37.949Z,78.92
2018-11-30T10:35:37.928Z,79.39
2018-11-30T10:36:37.947Z,80.25
2018-11-30T10:37:37.960Z,81.38
2018-11-30T10:39:37.983Z,81.67
2018-11-30T10:40:37.995Z,82.14
2018-11-30T10:41:38.013Z,83.18
2018-11-30T10:42:38.026Z,83.09
2018-11-30T10:43:38.085Z,83.37
2018-11-30T10:44:38.052Z,85.17
2018-11-30T10:45:38.063Z,85.08
2018-11-30T10:46:52.738Z,85.65
2018-11-30T10:47:38.089Z,84.99
2018-11-30T10:48:38.108Z,85.93
2018-11-30T10:49:38.115Z,86.41
2018-11-30T10:50:38.130Z,86.22
2018-11-30T10:51:38.144Z,86.5
2018-11-30T10:52:38.168Z,87.92
2018-11-30T10:53:38.173Z,87.5
2018-11-30T10:54:38.183Z,87.35
2018-11-30T10:57:38.226Z,89.3
2018-11-30T10:58:38.239Z,88.87
2018-11-30T10:59:38.253Z,89.44
2018-11-30T11:00:38.263Z,88.4
2018-11-30T11:01:38.276Z,88.4
2018-11-30T11:02:52.952Z,88.3
2018-11-30T11:03:38.305Z,87.54
2018-11-30T11:04:38.316Z,87.26
2018-11-30T11:05:38.330Z,87.73
2018-11-30T11:06:38.342Z,87.73
2018-11-30T11:07:38.358Z,87.16
2018-11-30T11:08:38.371Z,87.73
2018-11-30T11:09:38.137Z,89.06
2018-11-30T11:10:38.402Z,89.72
2018-11-30T11:11:38.412Z,90.67
2018-11-30T11:12:38.425Z,91.19
2018-11-30T11:13:38.439Z,91.33
2018-11-30T11:14:38.452Z,91.62
2018-11-30T11:16:38.483Z,93.23
2018-11-30T11:17:38.497Z,93.37
2018-11-30T11:18:53.165Z,94.42
2018-11-30T11:19:38.525Z,95.17
2018-11-30T11:20:38.528Z,95.5
2018-11-30T11:21:38.548Z,94.89
2018-11-30T11:22:38.560Z,95.26
2018-11-30T11:23:38.572Z,95.45
2018-11-30T11:24:38.628Z,95.36
2018-11-30T11:25:38.601Z,95.07
2018-11-30T11:26:38.613Z,95.64
2018-11-30T11:27:38.633Z,95.55
2018-11-30T11:28:38.639Z,96.21
2018-11-30T11:29:38.650Z,96.4
2018-11-30T11:30:38.664Z,96.59
2018-11-30T11:31:38.675Z,97.06
2018-11-30T11:32:38.702Z,97.16
2018-11-30T11:33:38.706Z,97.16
2018-11-30T11:34:53.378Z,97.54
2018-11-30T11:36:38.956Z,97.73
2018-11-30T11:37:38.755Z,97.82
2018-11-30T11:38:38.772Z,98.39
2018-11-30T11:39:38.785Z,98.39
2018-11-30T11:40:38.796Z,98.77
2018-11-30T11:41:38.809Z,99.62
2018-11-30T11:42:38.823Z,99.99
2018-11-30T11:43:38.837Z,99.99
2018-11-30T11:44:38.850Z,99.99
2018-11-30T11:46:38.874Z,99.99
2018-11-30T11:47:38.889Z,99.99
2018-11-30T11:48:38.902Z,99.99
2018-11-30T11:49:53.575Z,99.99
2018-11-30T11:50:38.933Z,99.99
2018-11-30T11:51:38.946Z,99.99
2018-11-30T11:52:38.970Z,99.99
2018-11-30T11:53:38.978Z,99.99
2018-11-30T11:54:38.981Z,99.99
2018-11-30T11:55:38.997Z,99.99
2018-11-30T11:56:39.007Z,99.99
2018-11-30T11:57:39.022Z,99.99
2018-11-30T11:58:39.042Z,99.99
2018-11-30T11:59:39.055Z,99.99
2018-11-30T12:00:39.062Z,99.99
2018-11-30T12:02:39.086Z,99.99
2018-11-30T12:03:39.100Z,99.99
2018-11-30T12:04:39.112Z,99.99
2018-11-30T12:05:39.126Z,99.99
2018-11-30T12:06:39.377Z,99.99
2018-11-30T12:07:39.152Z,99.99
2018-11-30T12:08:39.164Z,99.99
2018-11-30T12:09:39.176Z,99.99
2018-11-30T12:10:39.189Z,99.99
2018-11-30T12:11:39.204Z,99.99
2018-11-30T12:12:39.219Z,99.99
2018-11-30T12:13:39.229Z,99.99
2018-11-30T12:14:39.249Z,99.99
2018-11-30T12:16:39.268Z,99.99
2018-11-30T12:17:39.282Z,99.99
2018-11-30T12:18:39.296Z,99.99
2018-11-30T12:19:39.310Z,99.99
2018-11-30T12:20:39.321Z,99.99
2018-11-30T12:21:53.995Z,99.99
2018-11-30T12:22:39.350Z,99.99
2018-11-30T12:23:39.368Z,99.99
2018-11-30T12:24:39.376Z,99.99
2018-11-30T12:25:39.386Z,99.99
2018-11-30T12:26:39.407Z,99.99
2018-11-30T12:27:39.414Z,99.99
2018-11-30T12:28:39.429Z,99.99
2018-11-30T12:29:39.442Z,99.99
2018-11-30T12:30:39.453Z,99.99
2018-11-30T12:32:39.482Z,99.99
2018-11-30T12:33:39.496Z,99.99
2018-11-30T12:34:39.512Z,99.99
2018-11-30T12:35:39.523Z,99.99
2018-11-30T12:36:39.554Z,99.99
2018-11-30T12:37:54.210Z,99.99
2018-11-30T12:38:39.563Z,99.99
2018-11-30T12:39:39.577Z,99.99
2018-11-30T12:40:39.593Z,99.99
2018-11-30T12:41:39.608Z,99.99
2018-11-30T12:42:40.632Z,99.99
2018-11-30T12:43:39.631Z,99.99
2018-11-30T12:44:39.641Z,99.99
2018-11-30T12:45:39.655Z,99.99
2018-11-30T12:46:39.668Z,99.99
2018-11-30T12:48:39.696Z,99.99
2018-11-30T12:49:39.709Z,99.99
2018-11-30T12:50:39.725Z,99.99
2018-11-30T12:51:39.737Z,99.99
2018-11-30T12:52:39.757Z,99.99
2018-11-30T12:53:54.422Z,99.99
2018-11-30T12:54:39.778Z,99.99
2018-11-30T12:55:39.791Z,99.99
2018-11-30T12:56:39.808Z,99.99
2018-11-30T12:57:39.815Z,99.99
2018-11-30T12:58:39.829Z,99.99
2018-11-30T12:59:39.842Z,99.99
2018-11-30T13:00:39.857Z,99.99
2018-11-30T13:01:39.871Z,99.99
2018-11-30T13:02:39.882Z,99.99
2018-11-30T13:03:39.904Z,99.99
2018-11-30T13:04:39.906Z,99.99
2018-11-30T13:05:39.925Z,99.99
2018-11-30T13:06:39.940Z,99.99
2018-11-30T13:07:45.587Z,99.99
2018-11-30T13:08:39.967Z,99.99
2018-11-30T13:09:54.641Z,99.99
2018-11-30T13:10:39.990Z,99.99
2018-11-30T13:11:40.002Z,99.99
2018-11-30T13:12:40.013Z,99.99
2018-11-30T13:13:40.029Z,99.99
2018-11-30T13:14:40.044Z,99.99
2018-11-30T13:15:40.060Z,99.99
2018-11-30T13:16:40.071Z,99.99
2018-11-30T13:17:40.081Z,99.99
2018-11-30T13:18:40.094Z,99.99
2018-11-30T13:19:40.106Z,99.99
2018-11-30T13:20:40.123Z,99.99
2018-11-30T13:21:40.145Z,99.99
2018-11-30T13:22:40.146Z,99.99
2018-11-30T13:23:40.161Z,99.99
2018-11-30T13:24:54.837Z,99.99
2018-11-30T13:25:40.190Z,99.99
2018-11-30T13:26:40.200Z,99.99
2018-11-30T13:27:40.213Z,99.99
2018-11-30T13:28:40.228Z,99.99
2018-11-30T13:29:40.241Z,99.99
2018-11-30T13:30:40.255Z,99.99
2018-11-30T13:31:40.268Z,99.99
2018-11-30T13:33:41.056Z,99.99
2018-11-30T13:35:40.322Z,99.99
2018-11-30T13:36:40.336Z,99.99
2018-11-30T13:37:40.349Z,99.99
2018-11-30T13:38:40.369Z,99.99
2018-11-30T13:39:40.376Z,99.99
2018-11-30T13:40:40.389Z,99.99
2018-11-30T13:41:40.400Z,99.99
2018-11-30T13:42:40.416Z,99.99
2018-11-30T13:43:40.429Z,99.99
2018-11-30T13:44:40.439Z,99.99
2018-11-30T13:45:40.451Z,99.99
2018-11-30T13:46:40.467Z,99.99
2018-11-30T13:47:40.479Z,99.99
2018-11-30T13:48:40.492Z,99.99
2018-11-30T13:49:40.506Z,99.99
2018-11-30T13:50:40.521Z,99.99